Time;durP1;ratioP1;P1;durP2;ratioP2;P2;SDS_P1;SDS_P2;PMS_P1;PMS_P2;Temp;Humidity;BMP_temperature;BMP_pressure;BME280_temperature;BME280_humidity;BME280_pressure;Samples;Min_cycle;Max_cycle;Signal;HPM_P1;HPM_P2
2021/04/06 00:00:08;;;;;;;4.68;1.00;;;1.10;92.70;;;;;;5073985;28;20075;-78
2021/04/06 00:02:36;;;;;;;4.75;1.00;;;1.10;92.50;;;;;;5069856;28;20608;-79
2021/04/06 00:05:07;;;;;;;3.63;0.98;;;1.00;92.50;;;;;;5069443;28;20043;-79
2021/04/06 00:07:35;;;;;;;12.70;1.20;;;1.10;92.60;;;;;;5053210;28;20032;-78
2021/04/06 00:10:11;;;;;;;7.20;1.00;;;1.10;92.70;;;;;;5067502;28;20086;-80
2021/04/06 00:12:39;;;;;;;3.50;1.13;;;1.10;92.80;;;;;;5089270;28;20032;-80
2021/04/06 00:15:08;;;;;;;11.68;1.38;;;1.10;92.70;;;;;;5079440;28;20380;-79
2021/04/06 00:17:35;;;;;;;13.18;1.00;;;1.10;92.80;;;;;;5083290;28;20044;-80
2021/04/06 00:20:04;;;;;;;5.50;1.13;;;1.10;92.80;;;;;;5070460;28;20498;-80
2021/04/06 00:22:34;;;;;;;11.25;1.50;;;1.10;92.70;;;;;;5089339;28;20540;-79
2021/04/06 00:25:01;;;;;;;9.88;1.50;;;1.10;92.90;;;;;;5084611;28;20332;-80
2021/04/06 00:27:37;;;;;;;10.20;1.20;;;1.10;92.80;;;;;;5089460;28;20036;-79
2021/04/06 00:30:09;;;;;;;9.10;1.10;;;1.10;92.90;;;;;;5088574;28;20052;-80
2021/04/06 00:32:36;;;;;;;4.43;1.00;;;1.00;92.80;;;;;;5090885;28;20444;-81
2021/04/06 00:35:04;;;;;;;9.63;1.05;;;1.00;92.80;;;;;;5073045;28;20217;-81
2021/04/06 00:37:31;;;;;;;4.47;0.80;;;1.00;92.90;;;;;;5077517;28;20040;-80
2021/04/06 00:40:08;;;;;;;9.98;1.40;;;1.00;92.90;;;;;;5076074;28;20499;-80
2021/04/06 00:42:35;;;;;;;6.03;1.13;;;1.00;93.00;;;;;;5077849;28;20429;-81
2021/04/06 00:45:12;;;;;;;8.13;1.13;;;1.00;93.30;;;;;;5052843;28;21795;-80
2021/04/06 00:47:40;;;;;;;4.40;0.93;;;1.00;93.10;;;;;;5072927;28;20044;-81
2021/04/06 00:50:12;;;;;;;5.85;0.93;;;1.00;93.10;;;;;;5043770;28;20052;-81
2021/04/06 00:52:41;;;;;;;5.30;1.00;;;1.00;93.00;;;;;;5078957;28;20089;-80
2021/04/06 00:55:10;;;;;;;5.93;1.10;;;1.00;93.00;;;;;;5073971;28;20040;-80
2021/04/06 00:57:42;;;;;;;11.68;1.20;;;1.00;93.00;;;;;;5081012;28;20033;-81
2021/04/06 01:00:12;;;;;;;3.85;1.27;;;1.00;93.00;;;;;;5083068;28;20278;-81
2021/04/06 01:02:40;;;;;;;7.93;1.40;;;1.00;93.10;;;;;;5089425;28;20036;-80
2021/04/06 01:05:07;;;;;;;9.35;1.27;;;1.00;93.00;;;;;;5081232;28;20102;-80
2021/04/06 01:07:36;;;;;;;8.38;1.63;;;1.00;93.20;;;;;;5071785;28;20689;-81
2021/04/06 01:10:05;;;;;;;8.05;1.15;;;1.00;93.10;;;;;;5084389;28;20038;-81
2021/04/06 01:12:31;;;;;;;11.70;2.10;;;1.00;93.10;;;;;;5078178;28;20039;-81
2021/04/06 01:14:57;;;;;;;8.23;1.40;;;1.00;93.00;;;;;;5054887;28;20028;-82
2021/04/06 01:17:33;;;;;;;13.00;1.48;;;1.00;93.10;;;;;;5068806;28;20127;-81
2021/04/06 01:20:06;;;;;;;12.63;1.80;;;1.10;93.60;;;;;;5086703;28;20052;-81
2021/04/06 01:22:32;;;;;;;7.20;1.45;;;1.10;93.30;;;;;;5076659;28;20353;-80
2021/04/06 01:24:58;;;;;;;8.52;1.73;;;1.00;93.30;;;;;;5072890;28;20109;-81
2021/04/06 01:27:24;;;;;;;16.55;2.03;;;1.00;93.20;;;;;;5085927;28;20035;-81
2021/04/06 01:29:51;;;;;;;15.93;1.58;;;1.00;93.40;;;;;;5077211;28;20036;-81
2021/04/06 01:32:18;;;;;;;15.32;2.03;;;1.10;93.30;;;;;;5068689;28;20033;-80
2021/04/06 01:34:45;;;;;;;11.77;1.23;;;1.10;93.30;;;;;;5063506;28;20052;-81
2021/04/06 01:37:11;;;;;;;11.63;1.92;;;1.00;93.20;;;;;;5074422;28;20044;-80
2021/04/06 01:39:37;;;;;;;9.80;1.42;;;1.10;93.30;;;;;;5070291;28;20073;-80
2021/04/06 01:42:07;;;;;;;11.32;1.60;;;1.10;93.40;;;;;;5073096;28;20125;-81
2021/04/06 01:44:35;;;;;;;14.88;1.83;;;1.10;93.30;;;;;;5076201;28;20054;-80
2021/04/06 01:47:02;;;;;;;18.45;2.45;;;1.10;93.30;;;;;;5067161;28;20032;-79
2021/04/06 01:49:28;;;;;;;15.68;2.17;;;1.10;93.30;;;;;;5059767;28;20040;-80
2021/04/06 01:51:55;;;;;;;12.18;1.40;;;1.10;93.70;;;;;;5065592;28;20107;-80
2021/04/06 01:54:23;;;;;;;17.17;2.00;;;1.00;93.30;;;;;;5078900;28;20032;-80
2021/04/06 01:56:54;;;;;;;11.63;2.08;;;1.00;93.30;;;;;;5080217;28;20039;-82
2021/04/06 01:59:28;;;;;;;15.40;2.03;;;1.10;93.30;;;;;;5076827;28;20116;-80
2021/04/06 02:01:56;;;;;;;14.45;1.73;;;1.10;93.30;;;;;;5084454;28;20048;-80
2021/04/06 02:04:24;;;;;;;9.98;1.40;;;1.10;93.40;;;;;;5084877;28;20035;-79
2021/04/06 02:06:54;;;;;;;13.05;1.70;;;1.00;93.30;;;;;;5072449;28;20037;-79
2021/04/06 02:09:21;;;;;;;10.05;1.42;;;1.10;93.50;;;;;;5072895;28;20032;-79
2021/04/06 02:11:47;;;;;;;13.30;1.75;;;1.00;93.40;;;;;;5065305;28;20028;-79
2021/04/06 02:14:18;;;;;;;11.35;1.50;;;1.00;93.80;;;;;;5065519;28;20435;-79
2021/04/06 02:16:47;;;;;;;9.63;1.38;;;1.10;93.60;;;;;;5070052;28;20024;-79
2021/04/06 02:19:21;;;;;;;10.30;1.38;;;1.00;93.50;;;;;;5071381;28;20060;-79
2021/04/06 02:22:00;;;;;;;5.57;1.33;;;1.00;93.50;;;;;;5068503;28;20043;-79
2021/04/06 02:24:42;;;;;;;11.43;1.60;;;1.00;93.40;;;;;;5072168;28;20366;-79
2021/04/06 02:27:29;;;;;;;13.20;2.20;;;1.00;93.40;;;;;;5064053;28;20273;-79
2021/04/06 02:30:01;;;;;;;15.98;1.98;;;1.00;93.50;;;;;;5071287;28;20090;-79
2021/04/06 02:32:31;;;;;;;13.50;2.00;;;1.00;93.50;;;;;;5071938;28;20208;-79
2021/04/06 02:34:59;;;;;;;15.40;1.95;;;1.10;93.40;;;;;;5082776;28;20041;-79
2021/04/06 02:37:26;;;;;;;21.13;2.50;;;0.90;93.30;;;;;;5071178;28;20484;-79
2021/04/06 02:39:53;;;;;;;19.70;2.40;;;1.00;93.40;;;;;;5071764;28;20424;-79
2021/04/06 02:42:22;;;;;;;21.02;2.50;;;0.90;93.40;;;;;;5067208;28;20051;-79
2021/04/06 02:44:49;;;;;;;19.83;2.22;;;0.90;93.50;;;;;;5076270;28;20497;-79
2021/04/06 02:47:16;;;;;;;9.82;1.88;;;0.90;93.50;;;;;;5078114;28;20032;-79
2021/04/06 02:49:42;;;;;;;14.85;2.03;;;1.00;93.70;;;;;;5081624;28;20040;-79
2021/04/06 02:52:08;;;;;;;10.40;1.85;;;0.90;93.70;;;;;;5068659;28;20038;-80
2021/04/06 02:54:34;;;;;;;20.05;3.20;;;0.90;93.70;;;;;;5051571;28;20055;-79
2021/04/06 02:57:16;;;;;;;22.45;2.67;;;0.90;93.80;;;;;;5046180;28;20036;-79
2021/04/06 02:59:42;;;;;;;23.00;3.25;;;0.90;94.00;;;;;;5083541;28;20840;-80
2021/04/06 03:02:07;;;;;;;18.30;2.45;;;0.90;93.80;;;;;;5078010;28;20068;-80
2021/04/06 03:04:33;;;;;;;18.83;2.38;;;0.90;93.80;;;;;;5054065;28;20564;-79
2021/04/06 03:06:59;;;;;;;17.27;2.75;;;0.90;93.90;;;;;;5068725;28;20048;-79
2021/04/06 03:09:26;;;;;;;19.77;2.85;;;0.90;93.80;;;;;;5077351;28;20125;-80
2021/04/06 03:11:54;;;;;;;21.75;2.33;;;0.90;93.70;;;;;;5057250;28;20426;-80
2021/04/06 03:14:25;;;;;;;18.58;2.90;;;0.90;93.90;;;;;;5061681;28;20047;-79
2021/04/06 03:16:53;;;;;;;17.98;2.55;;;0.90;94.20;;;;;;5060304;28;20673;-80
2021/04/06 03:19:30;;;;;;;15.48;2.33;;;1.00;93.80;;;;;;5079335;28;20036;-80
2021/04/06 03:21:57;;;;;;;21.80;2.42;;;0.90;93.90;;;;;;5091755;28;20450;-80
2021/04/06 03:24:32;;;;;;;18.60;2.05;;;1.00;94.00;;;;;;5078227;28;20565;-82
2021/04/06 03:27:03;;;;;;;24.23;2.75;;;1.00;94.00;;;;;;5071200;28;20422;-83
2021/04/06 03:29:31;;;;;;;17.73;2.53;;;1.00;93.70;;;;;;5087663;28;20045;-79
2021/04/06 03:31:58;;;;;;;19.67;3.30;;;1.00;93.60;;;;;;5080830;28;20047;-79
2021/04/06 03:34:37;;;;;;;16.15;2.75;;;1.00;93.50;;;;;;5084663;28;20032;-80
2021/04/06 03:37:08;;;;;;;21.25;2.97;;;1.00;93.60;;;;;;5072914;28;20487;-83
2021/04/06 03:39:35;;;;;;;28.38;3.00;;;1.10;93.50;;;;;;5074486;28;20119;-80
2021/04/06 03:42:02;;;;;;;24.20;3.38;;;1.10;93.40;;;;;;5074578;28;20095;-80
2021/04/06 03:44:30;;;;;;;22.70;2.75;;;1.10;93.30;;;;;;5052892;28;20043;-80
2021/04/06 03:46:58;;;;;;;25.90;3.53;;;1.10;93.60;;;;;;5072072;28;20213;-80
2021/04/06 03:49:26;;;;;;;15.52;3.03;;;1.10;93.40;;;;;;5068890;28;20044;-80
2021/04/06 03:51:55;;;;;;;23.25;3.60;;;1.10;93.30;;;;;;5043071;28;20186;-80
2021/04/06 03:54:47;;;;;;;24.23;2.70;;;1.10;93.40;;;;;;5067162;28;20585;-79
2021/04/06 03:57:52;;;;;;;27.33;3.40;;;1.10;93.30;;;;;;5058536;28;20395;-79
2021/04/06 04:00:14;;;;;;;25.45;3.03;;;1.10;93.40;;;;;;5067893;28;20505;-79
2021/04/06 04:02:40;;;;;;;21.63;2.83;;;1.00;93.40;;;;;;5065931;28;20040;-81
2021/04/06 04:05:07;;;;;;;18.42;2.28;;;1.10;93.40;;;;;;5054801;28;20040;-79
2021/04/06 04:07:37;;;;;;;17.50;2.53;;;1.00;93.30;;;;;;5070962;28;20619;-79
2021/04/06 04:10:08;;;;;;;16.95;2.85;;;1.10;93.10;;;;;;5069772;28;20035;-82
2021/04/06 04:12:34;;;;;;;22.35;2.75;;;1.00;93.10;;;;;;5069024;28;20306;-79
2021/04/06 04:15:00;;;;;;;22.45;2.50;;;1.00;93.10;;;;;;5070457;28;20039;-79
2021/04/06 04:17:26;;;;;;;23.13;3.20;;;1.00;93.00;;;;;;5080697;28;20203;-81
2021/04/06 04:19:53;;;;;;;26.67;3.10;;;0.90;93.10;;;;;;5088567;28;20120;-80
2021/04/06 04:22:19;;;;;;;24.75;2.72;;;0.90;93.20;;;;;;5069784;28;20055;-81
2021/04/06 04:24:45;;;;;;;32.03;3.65;;;0.80;93.40;;;;;;5065942;28;20024;-81
2021/04/06 04:27:11;;;;;;;21.40;2.95;;;0.80;93.20;;;;;;5066799;28;20071;-81
2021/04/06 04:29:37;;;;;;;22.85;3.03;;;0.80;93.80;;;;;;5083544;28;20040;-82
2021/04/06 04:32:11;;;;;;;35.50;3.67;;;0.80;93.50;;;;;;5091134;28;20581;-81
2021/04/06 04:34:38;;;;;;;16.77;2.95;;;0.80;93.70;;;;;;5084324;28;20085;-81
2021/04/06 04:37:03;;;;;;;24.70;2.92;;;0.70;93.60;;;;;;5043045;28;20052;-82
2021/04/06 04:39:29;;;;;;;20.75;3.70;;;0.80;93.60;;;;;;5083079;28;20410;-81
2021/04/06 04:41:55;;;;;;;25.65;3.65;;;0.70;93.60;;;;;;5085893;28;20024;-81
2021/04/06 04:44:21;;;;;;;27.40;3.15;;;0.70;93.50;;;;;;5076309;28;20058;-81
2021/04/06 04:46:46;;;;;;;25.45;2.97;;;0.60;93.60;;;;;;5078693;28;20478;-81
2021/04/06 04:49:12;;;;;;;22.13;3.40;;;0.60;93.50;;;;;;5070476;28;20036;-81
2021/04/06 04:51:38;;;;;;;25.27;3.30;;;0.50;93.50;;;;;;5079938;28;20120;-81
2021/04/06 04:54:04;;;;;;;19.15;2.78;;;0.50;93.60;;;;;;5078545;28;20043;-82
2021/04/06 04:56:30;;;;;;;28.05;4.32;;;0.50;93.60;;;;;;5079163;28;20047;-82
2021/04/06 04:58:56;;;;;;;25.55;3.47;;;0.50;93.60;;;;;;5074570;28;20044;-81
2021/04/06 05:01:21;;;;;;;33.70;3.20;;;0.50;93.60;;;;;;5070913;28;20082;-81
2021/04/06 05:03:48;;;;;;;26.10;3.53;;;0.40;93.60;;;;;;5108968;28;20028;-82
2021/04/06 05:06:13;;;;;;;21.27;4.20;;;0.40;93.70;;;;;;5062453;28;20070;-81
2021/04/06 05:08:39;;;;;;;28.95;3.90;;;0.30;93.70;;;;;;5061197;28;20131;-83
2021/04/06 05:11:05;;;;;;;31.63;3.92;;;0.30;93.70;;;;;;5082413;28;20043;-82
2021/04/06 05:13:31;;;;;;;21.25;2.95;;;0.30;93.70;;;;;;5084768;28;20036;-81
2021/04/06 05:15:57;;;;;;;21.10;3.42;;;0.30;93.60;;;;;;5075320;28;20024;-81
2021/04/06 05:18:22;;;;;;;28.75;3.70;;;0.40;93.60;;;;;;5050692;28;20028;-82
2021/04/06 05:20:48;;;;;;;18.48;3.08;;;0.30;93.60;;;;;;5061485;28;20035;-81
2021/04/06 05:23:14;;;;;;;24.55;4.55;;;0.30;93.60;;;;;;5072166;28;20506;-83
2021/04/06 05:25:40;;;;;;;22.63;2.75;;;0.30;93.50;;;;;;5060312;28;20255;-83
2021/04/06 05:28:07;;;;;;;28.30;3.22;;;0.40;93.50;;;;;;5075757;28;20386;-81
2021/04/06 05:30:34;;;;;;;26.58;3.63;;;0.40;93.50;;;;;;5048362;28;20097;-82
2021/04/06 05:33:02;;;;;;;21.52;2.78;;;0.40;93.50;;;;;;5071329;28;20032;-81
2021/04/06 05:35:29;;;;;;;29.20;3.47;;;0.50;93.50;;;;;;5069213;28;20036;-82
2021/04/06 05:37:54;;;;;;;20.10;2.78;;;0.40;93.40;;;;;;5062200;28;20116;-82
2021/04/06 05:40:20;;;;;;;25.48;3.13;;;0.40;93.40;;;;;;5061760;28;20036;-81
2021/04/06 05:42:47;;;;;;;17.38;2.60;;;0.40;93.40;;;;;;5061833;28;20041;-81
2021/04/06 05:45:13;;;;;;;16.95;3.00;;;0.50;93.40;;;;;;5059502;28;20032;-82
2021/04/06 05:47:44;;;;;;;14.85;2.55;;;0.50;93.40;;;;;;5063871;28;20123;-82
2021/04/06 05:50:10;;;;;;;20.73;2.55;;;0.60;93.40;;;;;;5056826;28;20066;-83
2021/04/06 05:52:36;;;;;;;18.02;2.15;;;0.60;93.20;;;;;;5073177;28;20048;-81
2021/04/06 05:55:04;;;;;;;10.88;1.80;;;0.60;93.20;;;;;;5055627;28;20032;-82
2021/04/06 05:57:31;;;;;;;11.05;2.33;;;0.60;93.20;;;;;;5055113;28;20037;-84
2021/04/06 05:59:57;;;;;;;18.60;2.45;;;0.60;93.10;;;;;;5075553;28;20025;-83
2021/04/06 06:02:23;;;;;;;13.15;2.00;;;0.70;93.10;;;;;;5059249;28;20051;-84
2021/04/06 06:04:49;;;;;;;15.57;2.20;;;0.70;93.00;;;;;;5071172;28;20131;-84
2021/04/06 06:07:16;;;;;;;5.47;1.67;;;0.70;93.00;;;;;;5072613;28;20046;-84
2021/04/06 06:09:46;;;;;;;20.95;2.70;;;0.80;93.00;;;;;;5084352;28;20039;-82
2021/04/06 06:12:14;;;;;;;16.80;2.50;;;0.90;93.00;;;;;;5087233;28;20032;-82
2021/04/06 06:14:45;;;;;;;10.05;1.98;;;0.90;93.00;;;;;;5065885;28;20035;-81
2021/04/06 06:17:13;;;;;;;16.67;2.15;;;1.20;93.00;;;;;;5086568;28;20095;-82
2021/04/06 06:19:39;;;;;;;16.67;2.78;;;1.20;92.90;;;;;;5077872;28;20037;-82
2021/04/06 06:22:16;;;;;;;10.23;1.80;;;1.30;92.90;;;;;;5076073;28;20032;-82
2021/04/06 06:24:46;;;;;;;16.40;2.40;;;1.30;92.70;;;;;;5083954;28;20036;-81
2021/04/06 06:27:39;;;;;;;10.35;1.75;;;1.20;92.60;;;;;;5082967;28;20025;-81
2021/04/06 06:30:28;;;;;;;17.73;1.60;;;1.20;92.80;;;;;;5076103;28;20043;-82
2021/04/06 06:33:25;;;;;;;10.45;1.55;;;1.10;92.90;;;;;;5079429;28;20040;-81
2021/04/06 06:35:59;;;;;;;7.45;1.60;;;1.00;92.90;;;;;;5075174;28;20047;-82
2021/04/06 06:38:27;;;;;;;;;;;1.00;92.90;;;;;;5073626;28;20838;-83
2021/04/06 06:40:56;;;;;;;13.95;2.13;;;0.90;93.10;;;;;;5077140;28;19963;-83
2021/04/06 06:43:23;;;;;;;9.38;2.65;;;0.90;93.30;;;;;;5079602;28;20040;-83
2021/04/06 06:45:53;;;;;;;13.15;2.38;;;0.80;92.90;;;;;;5076807;28;20213;-83
2021/04/06 06:48:27;;;;;;;11.45;1.98;;;0.70;93.00;;;;;;5078890;28;20043;-80
2021/04/06 06:50:53;;;;;;;9.15;1.50;;;0.80;93.10;;;;;;5073878;28;20052;-83
2021/04/06 06:53:41;;;;;;;11.38;1.90;;;0.80;93.20;;;;;;5077715;28;20044;-81
2021/04/06 06:56:11;;;;;;;11.55;2.05;;;0.80;93.30;;;;;;5091961;28;20478;-81
2021/04/06 06:58:43;;;;;;;10.40;2.13;;;0.80;93.40;;;;;;5078271;28;20037;-83
2021/04/06 07:01:22;;;;;;;9.20;1.98;;;0.90;93.70;;;;;;5085010;28;20096;-81
2021/04/06 07:04:14;;;;;;;13.65;2.13;;;1.00;93.50;;;;;;5087198;28;20043;-82
2021/04/06 07:06:45;;;;;;;9.77;1.70;;;1.20;93.60;;;;;;5093362;28;20036;-81
2021/04/06 07:09:29;;;;;;;9.73;2.03;;;1.40;93.60;;;;;;5087422;28;20138;-82
2021/04/06 07:11:58;;;;;;;10.98;2.72;;;1.50;93.30;;;;;;5081742;28;20062;-82
2021/04/06 07:14:26;;;;;;;11.50;2.38;;;1.90;93.40;;;;;;5085213;28;20127;-81
2021/04/06 07:16:58;;;;;;;11.43;2.15;;;2.10;93.00;;;;;;5083781;28;20056;-80
2021/04/06 07:19:24;;;;;;;9.63;1.65;;;2.30;92.50;;;;;;5090530;28;20100;-80
2021/04/06 07:21:54;;;;;;;8.10;1.90;;;2.30;92.30;;;;;;5087529;28;20035;-79
2021/04/06 07:24:25;;;;;;;7.78;2.10;;;2.30;92.10;;;;;;5089720;28;20036;-79
2021/04/06 07:26:51;;;;;;;9.60;1.60;;;2.30;92.10;;;;;;5090203;28;20028;-80
2021/04/06 07:29:19;;;;;;;5.80;1.70;;;2.10;92.10;;;;;;5067951;28;20580;-79
2021/04/06 07:31:45;;;;;;;5.93;1.58;;;2.00;92.10;;;;;;5084334;28;20119;-81
2021/04/06 07:34:12;;;;;;;5.05;1.70;;;2.00;92.10;;;;;;5072162;28;20064;-80
2021/04/06 07:36:39;;;;;;;13.35;1.80;;;2.10;92.20;;;;;;5087006;28;20108;-80
2021/04/06 07:39:07;;;;;;;13.40;2.88;;;2.10;92.20;;;;;;5071894;28;20029;-79
2021/04/06 07:41:38;;;;;;;7.90;2.00;;;2.20;92.20;;;;;;5072055;28;20048;-82
2021/04/06 07:44:04;;;;;;;6.13;1.35;;;2.30;92.10;;;;;;5079987;28;20185;-81
2021/04/06 07:46:33;;;;;;;8.98;2.35;;;2.30;91.80;;;;;;5074505;28;20059;-81
2021/04/06 07:48:59;;;;;;;12.13;3.80;;;2.30;91.90;;;;;;5076822;28;20058;-80
2021/04/06 07:51:36;;;;;;;9.98;2.28;;;2.20;91.80;;;;;;5071656;28;20062;-79
2021/04/06 07:54:08;;;;;;;11.88;2.53;;;2.30;91.90;;;;;;5071549;28;20038;-80
2021/04/06 07:56:46;;;;;;;10.85;2.15;;;2.40;92.00;;;;;;5077712;28;20110;-79
2021/04/06 07:59:18;;;;;;;7.85;2.55;;;2.60;91.80;;;;;;5081871;28;20036;-81
2021/04/06 08:02:04;;;;;;;7.53;1.40;;;2.60;91.50;;;;;;5077226;28;20482;-79
2021/04/06 08:04:45;;;;;;;12.13;3.25;;;2.60;91.80;;;;;;5059517;28;20779;-81
2021/04/06 08:07:27;;;;;;;3.97;1.48;;;2.70;91.30;;;;;;5088705;28;20028;-79
2021/04/06 08:09:59;;;;;;;10.18;1.73;;;2.80;91.20;;;;;;5076450;28;20038;-81
2021/04/06 08:12:29;;;;;;;9.13;1.80;;;2.90;91.60;;;;;;5076104;28;20032;-79
2021/04/06 08:15:01;;;;;;;7.38;1.80;;;3.10;91.30;;;;;;5081297;28;20063;-79
2021/04/06 08:17:27;;;;;;;5.38;1.70;;;3.30;91.00;;;;;;5073101;28;20058;-81
2021/04/06 08:20:04;;;;;;;7.85;1.70;;;3.40;91.00;;;;;;5073485;28;20027;-81
2021/04/06 08:22:50;;;;;;;6.53;1.80;;;3.30;90.60;;;;;;5071372;28;20055;-80
2021/04/06 08:25:16;;;;;;;8.80;1.48;;;3.30;90.50;;;;;;5082092;28;20058;-80
2021/04/06 08:27:48;;;;;;;11.43;1.58;;;3.20;90.50;;;;;;5079442;28;20048;-80
2021/04/06 08:30:21;;;;;;;4.05;1.20;;;3.10;90.30;;;;;;5070936;28;20407;-81
2021/04/06 08:32:59;;;;;;;3.33;1.00;;;3.10;90.50;;;;;;5076607;28;20043;-82
2021/04/06 08:35:44;;;;;;;4.80;1.33;;;3.30;90.30;;;;;;5085294;28;20482;-79
2021/04/06 08:38:27;;;;;;;7.25;1.77;;;3.40;90.20;;;;;;5065746;28;20055;-80
2021/04/06 08:40:57;;;;;;;9.00;1.48;;;3.70;90.10;;;;;;5070430;28;20043;-81
2021/04/06 08:43:26;;;;;;;7.07;1.38;;;3.70;89.20;;;;;;5071584;28;20048;-78
2021/04/06 08:45:56;;;;;;;4.95;1.10;;;3.80;89.30;;;;;;5073891;28;20035;-78
2021/04/06 08:48:50;;;;;;;12.57;1.70;;;3.80;88.60;;;;;;5068672;28;20037;-80
2021/04/06 08:51:29;;;;;;;6.60;1.23;;;3.60;88.80;;;;;;5064052;28;20035;-79
2021/04/06 08:54:03;;;;;;;6.68;1.23;;;3.40;89.40;;;;;;5063209;28;20036;-79
2021/04/06 08:56:33;;;;;;;2.75;0.82;;;3.20;89.50;;;;;;5062240;28;20490;-79
2021/04/06 08:59:20;;;;;;;7.38;1.52;;;2.90;90.00;;;;;;5063246;28;20032;-79
2021/04/06 09:01:56;;;;;;;6.95;1.20;;;2.70;90.40;;;;;;5070731;28;20457;-79
2021/04/06 09:04:26;;;;;;;4.40;1.00;;;2.60;90.60;;;;;;5076393;28;20048;-81
2021/04/06 09:06:52;;;;;;;3.58;0.93;;;2.50;90.80;;;;;;5073606;28;20043;-80
2021/04/06 09:09:26;;;;;;;6.38;1.52;;;2.40;91.00;;;;;;5034263;28;20039;-80
2021/04/06 09:11:54;;;;;;;3.95;1.30;;;2.30;91.40;;;;;;5070096;28;20488;-81
2021/04/06 09:14:21;;;;;;;8.70;1.67;;;2.40;91.30;;;;;;5073484;28;20032;-79
2021/04/06 09:16:51;;;;;;;6.68;1.17;;;2.50;91.70;;;;;;5049389;28;20506;-80
2021/04/06 09:19:17;;;;;;;7.88;1.75;;;2.60;91.50;;;;;;5071359;28;20040;-80
2021/04/06 09:21:55;;;;;;;5.38;1.75;;;2.80;91.50;;;;;;5066741;28;20142;-80
2021/04/06 09:24:24;;;;;;;9.25;1.92;;;2.80;91.40;;;;;;5072422;28;20040;-80
2021/04/06 09:26:51;;;;;;;7.60;1.70;;;3.00;91.30;;;;;;5068104;28;20257;-80
2021/04/06 09:29:23;;;;;;;8.40;1.77;;;3.10;91.30;;;;;;5079411;28;20024;-80
2021/04/06 09:32:07;;;;;;;8.20;2.27;;;3.30;91.30;;;;;;5077453;28;20180;-81
2021/04/06 09:34:38;;;;;;;7.47;2.05;;;3.50;91.20;;;;;;5071045;28;20172;-81
2021/04/06 09:37:07;;;;;;;7.97;1.98;;;3.70;91.20;;;;;;5068984;28;20044;-82
2021/04/06 09:39:35;;;;;;;13.35;2.78;;;3.90;91.00;;;;;;5073036;28;20039;-81
2021/04/06 09:42:03;;;;;;;10.90;2.53;;;3.80;90.80;;;;;;5080127;28;20548;-81
2021/04/06 09:44:32;;;;;;;6.80;2.17;;;3.80;90.60;;;;;;5073095;28;20035;-80
2021/04/06 09:47:03;;;;;;;5.22;1.63;;;3.80;90.60;;;;;;5073785;28;20445;-80
2021/04/06 09:49:41;;;;;;;11.63;2.22;;;3.70;90.50;;;;;;5079601;28;20397;-82
2021/04/06 09:52:16;;;;;;;8.65;2.47;;;3.70;90.40;;;;;;5078174;28;20031;-80
2021/04/06 09:54:51;;;;;;;5.95;1.52;;;3.70;90.50;;;;;;5088713;28;20042;-82
2021/04/06 09:57:17;;;;;;;5.57;1.67;;;3.80;90.40;;;;;;5087028;28;20453;-82
2021/04/06 09:59:56;;;;;;;9.73;2.10;;;3.90;90.20;;;;;;5085335;28;20040;-82
2021/04/06 10:02:27;;;;;;;10.07;2.60;;;3.90;89.70;;;;;;5075268;28;20040;-82
2021/04/06 10:04:53;;;;;;;6.32;1.98;;;4.00;89.90;;;;;;5080965;28;20115;-82
2021/04/06 10:07:33;;;;;;;8.02;1.60;;;4.00;89.40;;;;;;5071255;28;20317;-82
2021/04/06 10:10:07;;;;;;;5.80;1.63;;;4.00;89.30;;;;;;5073823;28;20106;-81
2021/04/06 10:12:33;;;;;;;9.10;1.60;;;3.90;88.90;;;;;;5072004;28;20032;-81
2021/04/06 10:15:00;;;;;;;9.68;1.88;;;4.00;89.50;;;;;;5071999;28;20085;-81
2021/04/06 10:17:37;;;;;;;4.38;1.35;;;4.10;89.20;;;;;;5062338;28;20279;-81
2021/04/06 10:20:10;;;;;;;10.85;1.80;;;4.20;88.80;;;;;;5059856;28;20111;-81
2021/04/06 10:22:56;;;;;;;10.23;1.83;;;4.30;88.60;;;;;;5051637;28;20047;-84
2021/04/06 10:25:25;;;;;;;15.10;2.20;;;4.40;88.00;;;;;;5054611;28;20032;-81
2021/04/06 10:27:59;;;;;;;14.35;2.13;;;4.60;88.40;;;;;;5073054;28;20129;-80
2021/04/06 10:30:42;;;;;;;7.90;2.08;;;4.70;87.50;;;;;;5076699;28;20551;-81
2021/04/06 10:33:12;;;;;;;6.93;1.85;;;4.80;86.60;;;;;;5083216;28;20032;-81
2021/04/06 10:35:58;;;;;;;17.38;2.70;;;5.00;86.30;;;;;;5086664;28;20028;-81
2021/04/06 10:38:39;;;;;;;14.30;2.13;;;5.30;86.30;;;;;;5076444;28;20044;-82
2021/04/06 10:41:14;;;;;;;10.43;1.98;;;5.50;85.10;;;;;;5089514;28;20046;-86
2021/04/06 10:43:47;;;;;;;10.38;1.65;;;5.30;84.20;;;;;;5084163;28;20059;-81
2021/04/06 10:46:14;;;;;;;;;;;5.00;85.00;;;;;;5068438;28;20044;-84
2021/04/06 10:48:49;;;;;;;10.30;1.52;;;4.60;83.90;;;;;;5052720;28;20011;-81
2021/04/06 10:51:23;;;;;;;10.40;1.60;;;4.20;85.00;;;;;;5064858;28;20036;-80
2021/04/06 10:53:53;;;;;;;7.93;1.83;;;3.80;86.30;;;;;;5079222;28;20071;-81
2021/04/06 10:56:42;;;;;;;8.20;1.20;;;3.50;87.10;;;;;;5081372;28;20117;-81
2021/04/06 10:59:10;;;;;;;13.52;2.22;;;3.30;87.20;;;;;;5081483;28;20109;-80
2021/04/06 11:01:43;;;;;;;8.88;2.33;;;3.30;88.90;;;;;;5088290;28;20035;-81
2021/04/06 11:04:13;;;;;;;10.60;1.90;;;3.50;89.10;;;;;;5081822;28;20025;-80
2021/04/06 11:06:59;;;;;;;12.52;1.98;;;3.80;89.10;;;;;;5085480;28;20036;-81
2021/04/06 11:09:33;;;;;;;7.63;1.60;;;4.10;89.20;;;;;;5080873;28;20510;-81
2021/04/06 11:11:59;;;;;;;11.68;2.08;;;4.20;88.30;;;;;;5081559;28;20047;-81
2021/04/06 11:14:26;;;;;;;10.73;1.65;;;4.20;88.20;;;;;;5087016;28;20524;-81
2021/04/06 11:16:54;;;;;;;11.40;1.73;;;4.10;86.70;;;;;;5078229;28;20105;-82
2021/04/06 11:19:29;;;;;;;10.88;1.42;;;4.20;86.60;;;;;;5089449;28;20460;-81
2021/04/06 11:21:58;;;;;;;9.30;1.02;;;4.10;84.90;;;;;;5082158;28;20032;-81
2021/04/06 11:24:25;;;;;;;8.75;1.20;;;3.90;84.90;;;;;;5082702;28;20032;-81
2021/04/06 11:26:52;;;;;;;6.00;1.25;;;3.70;85.70;;;;;;5055966;28;20037;-81
2021/04/06 11:29:21;;;;;;;12.25;1.60;;;3.70;85.60;;;;;;5075471;28;20033;-80
2021/04/06 11:31:50;;;;;;;14.23;1.90;;;3.70;85.50;;;;;;5076454;28;20443;-81
2021/04/06 11:34:16;;;;;;;11.38;2.20;;;3.70;86.50;;;;;;5077182;28;20033;-82
2021/04/06 11:36:47;;;;;;;9.25;1.80;;;3.80;86.60;;;;;;5060332;28;20024;-80
2021/04/06 11:39:16;;;;;;;12.18;2.17;;;3.80;87.80;;;;;;5061961;28;20071;-82
2021/04/06 11:41:44;;;;;;;10.68;2.38;;;4.10;87.90;;;;;;5066375;28;20028;-81
2021/04/06 11:44:12;;;;;;;9.10;1.88;;;4.40;88.50;;;;;;5075037;28;20059;-82
2021/04/06 11:46:38;;;;;;;12.18;2.10;;;4.90;88.00;;;;;;5075659;28;20593;-82
2021/04/06 11:49:06;;;;;;;8.80;1.40;;;5.20;87.30;;;;;;5074772;28;20124;-79
2021/04/06 11:51:32;;;;;;;11.02;1.25;;;5.40;84.40;;;;;;5085781;28;20489;-80
2021/04/06 11:53:58;;;;;;;8.30;1.60;;;5.40;82.30;;;;;;5069920;28;20032;-80
2021/04/06 11:56:24;;;;;;;5.10;1.20;;;5.30;81.00;;;;;;5090274;28;20078;-79
2021/04/06 11:58:50;;;;;;;7.00;1.42;;;5.10;80.80;;;;;;5055022;28;20043;-80
2021/04/06 12:01:17;;;;;;;13.63;1.40;;;5.00;81.30;;;;;;5091134;28;20036;-80
2021/04/06 12:03:42;;;;;;;8.50;1.48;;;5.20;81.40;;;;;;5084638;28;20024;-79
2021/04/06 12:06:08;;;;;;;11.23;1.55;;;5.60;81.30;;;;;;5085209;28;20038;-80
2021/04/06 12:08:34;;;;;;;10.82;2.20;;;6.00;78.90;;;;;;5062315;28;20043;-80
2021/04/06 12:11:02;;;;;;;9.32;1.50;;;6.20;77.00;;;;;;5047391;28;20068;-82
2021/04/06 12:13:29;;;;;;;10.98;1.80;;;6.40;76.00;;;;;;5067281;28;20035;-77
2021/04/06 12:15:55;;;;;;;8.23;1.70;;;6.40;74.60;;;;;;5073974;28;20450;-79
2021/04/06 12:18:21;;;;;;;10.07;1.55;;;6.30;74.50;;;;;;5074355;28;20028;-79
2021/04/06 12:20:47;;;;;;;8.55;1.90;;;6.40;71.30;;;;;;5067167;28;20048;-79
2021/04/06 12:23:13;;;;;;;8.63;1.60;;;6.60;72.70;;;;;;5047118;28;20455;-83
2021/04/06 12:25:38;;;;;;;11.88;2.10;;;6.80;72.80;;;;;;5059882;28;20040;-83
2021/04/06 12:28:05;;;;;;;7.32;1.27;;;7.30;73.70;;;;;;5059357;28;20410;-79
2021/04/06 12:30:31;;;;;;;9.68;2.10;;;7.40;71.50;;;;;;5078950;28;20154;-80
2021/04/06 12:32:56;;;;;;;7.80;1.60;;;7.20;70.80;;;;;;5053723;28;20116;-82
2021/04/06 12:35:22;;;;;;;11.20;1.70;;;6.70;69.30;;;;;;5060576;28;20024;-78
2021/04/06 12:37:48;;;;;;;12.20;1.73;;;5.90;70.80;;;;;;5074906;28;20032;-78
2021/04/06 12:40:14;;;;;;;8.60;1.40;;;5.30;72.80;;;;;;5069332;28;20047;-78
2021/04/06 12:42:41;;;;;;;8.75;1.70;;;4.80;73.80;;;;;;5069984;28;20043;-79
2021/04/06 12:45:11;;;;;;;12.60;2.22;;;4.50;75.40;;;;;;5070458;28;20510;-79
2021/04/06 12:47:36;;;;;;;10.27;1.60;;;4.30;75.50;;;;;;5085457;28;20118;-79
2021/04/06 12:50:03;;;;;;;9.98;1.83;;;4.20;76.10;;;;;;5081125;28;20064;-79
2021/04/06 12:52:29;;;;;;;16.48;2.05;;;4.20;76.60;;;;;;5079454;28;20048;-80
2021/04/06 12:54:55;;;;;;;11.13;1.90;;;4.20;76.40;;;;;;5057751;28;20046;-82
2021/04/06 12:57:23;;;;;;;6.90;1.35;;;4.30;77.00;;;;;;5072266;28;20051;-81
2021/04/06 12:59:51;;;;;;;9.63;1.77;;;4.70;78.10;;;;;;5058107;28;20501;-82
2021/04/06 13:02:17;;;;;;;11.93;1.40;;;5.10;78.70;;;;;;5076371;28;20044;-81
2021/04/06 13:04:43;;;;;;;8.80;1.58;;;5.60;76.90;;;;;;5077713;28;20486;-81